Track Евтюхова Екатерина

Time Latitude Longitude Accuracy (66% radius in meters) Altitude (meters) Speed (km/hour) Bearing (degrees) Battery (%) GPS flag
07:20:50 57.204832 60.121373 0 0 0 0 1 delete
07:20:49 57.204841 60.121392 0 0 0 0 1 delete
07:20:48 57.204849 60.121410 0 0 0 0 1 delete
07:20:47 57.204857 60.121428 0 0 0 0 1 delete
07:20:46 57.204863 60.121446 0 0 0 0 1 delete
07:20:45 57.204866 60.121465 0 0 0 0 1 delete
07:20:44 57.204866 60.121488 0 0 0 0 1 delete
07:20:43 57.204864 60.121511 0 0 0 0 1 delete
07:20:42 57.204863 60.121538 0 0 0 0 1 delete
07:20:41 57.204866 60.121558 0 0 0 0 1 delete
07:20:40 57.204868 60.121570 0 0 0 0 1 delete
07:20:39 57.204867 60.121574 0 0 0 0 1 delete
07:20:38 57.204864 60.121576 0 0 0 0 1 delete
07:20:37 57.204861 60.121581 0 0 0 0 1 delete
07:20:36 57.204859 60.121591 0 0 0 0 1 delete
07:20:35 57.204857 60.121602 0 0 0 0 1 delete
07:20:34 57.204853 60.121610 0 0 0 0 1 delete
07:20:33 57.204848 60.121617 0 0 0 0 1 delete
07:20:32 57.204844 60.121623 0 0 0 0 1 delete
07:20:31 57.204843 60.121626 0 0 0 0 1 delete
07:20:30 57.204843 60.121626 0 0 0 0 1 delete
07:20:29 57.204844 60.121624 0 0 0 0 1 delete
07:20:28 57.204843 60.121617 0 0 0 0 1 delete
07:20:27 57.204845 60.121604 0 0 0 0 1 delete
07:20:26 57.204847 60.121586 0 0 0 0 1 delete
07:20:25 57.204850 60.121562 0 0 0 0 1 delete
07:20:24 57.204852 60.121535 0 0 0 0 1 delete
07:20:23 57.204853 60.121505 0 0 0 0 1 delete
07:20:22 57.204851 60.121477 0 0 0 0 1 delete
07:20:21 57.204847 60.121450 0 0 0 0 1 delete
07:20:20 57.204841 60.121425 0 0 0 0 1 delete
07:20:19 57.204835 60.121400 0 0 0 0 1 delete
07:20:18 57.204830 60.121380 0 0 0 0 1 delete
07:20:17 57.204828 60.121366 0 0 0 0 1 delete
07:20:16 57.204824 60.121354 0 0 0 0 1 delete
07:20:15 57.204818 60.121342 0 0 0 0 1 delete
07:20:14 57.204808 60.121329 0 0 0 0 1 delete
07:20:13 57.204800 60.121315 0 0 0 0 1 delete
07:20:12 57.204793 60.121298 0 0 0 0 1 delete
07:20:11 57.204786 60.121281 0 0 0 0 1 delete
07:20:10 57.204778 60.121263 0 0 0 0 1 delete
07:20:09 57.204771 60.121247 0 0 0 0 1 delete
07:20:08 57.204762 60.121230 0 0 0 0 1 delete
07:20:07 57.204754 60.121214 0 0 0 0 1 delete
07:20:06 57.204746 60.121198 0 0 0 0 1 delete
07:20:05 57.204738 60.121181 0 0 0 0 1 delete
07:20:04 57.204728 60.121164 0 0 0 0 1 delete
07:20:03 57.204718 60.121149 0 0 0 0 1 delete
07:20:02 57.204710 60.121134 0 0 0 0 1 delete
07:20:01 57.204702 60.121118 0 0 0 0 1 delete